createdAt,value
2023-02-07T00:01:56.726Z,75.70
2023-02-07T00:04:23.251Z,75.39
2023-02-07T00:06:49.802Z,75.39
2023-02-07T00:09:17.356Z,75.92
2023-02-07T00:11:43.912Z,75.37
2023-02-07T00:14:11.764Z,75.45
2023-02-07T00:16:38.893Z,75.21
2023-02-07T00:19:05.531Z,75.49
2023-02-07T00:21:32.124Z,75.21
2023-02-07T00:23:58.727Z,75.45
2023-02-07T00:26:27.009Z,75.15
2023-02-07T00:28:54.467Z,75.24
2023-02-07T00:31:25.108Z,74.77
2023-02-07T00:33:52.537Z,74.99
2023-02-07T00:36:21.869Z,75.19
2023-02-07T00:38:49.384Z,75.23
2023-02-07T00:41:18.623Z,75.15
2023-02-07T00:43:46.599Z,75.07
2023-02-07T00:46:13.292Z,75.65
2023-02-07T00:48:40.237Z,75.67
2023-02-07T00:51:08.585Z,75.36
2023-02-07T00:53:35.563Z,74.97
2023-02-07T00:56:02.515Z,75.58
2023-02-07T00:58:29.946Z,74.90
2023-02-07T01:00:56.491Z,74.47
2023-02-07T01:03:23.313Z,74.81
2023-02-07T01:05:49.860Z,75.06
2023-02-07T01:08:16.750Z,74.72
2023-02-07T01:10:44.550Z,74.63
2023-02-07T01:13:12.550Z,74.88
2023-02-07T01:15:40.935Z,74.72
2023-02-07T01:18:08.612Z,74.48
2023-02-07T01:20:35.151Z,74.54
2023-02-07T01:23:04.280Z,74.88
2023-02-07T01:25:31.239Z,75.18
2023-02-07T01:27:57.878Z,75.02
2023-02-07T01:30:24.425Z,74.98
2023-02-07T01:32:51.230Z,74.29
2023-02-07T01:35:17.780Z,74.89
2023-02-07T01:37:44.348Z,74.90
2023-02-07T01:40:12.336Z,75.08
2023-02-07T01:42:39.015Z,74.85
2023-02-07T01:45:16.154Z,74.31
2023-02-07T01:47:42.675Z,74.30
2023-02-07T01:50:09.635Z,74.83
2023-02-07T01:52:40.777Z,74.62
2023-02-07T01:55:11.327Z,74.63
2023-02-07T01:57:37.973Z,74.83
2023-02-07T02:00:08.387Z,74.74
2023-02-07T02:02:41.291Z,74.49
2023-02-07T02:05:09.083Z,74.74
2023-02-07T02:07:35.928Z,74.60
2023-02-07T02:10:02.520Z,74.99
2023-02-07T02:12:31.903Z,74.21
2023-02-07T02:15:30.133Z,74.22
2023-02-07T02:18:06.322Z,74.13
2023-02-07T02:20:58.728Z,74.55
2023-02-07T02:23:46.777Z,73.80
2023-02-07T02:26:35.011Z,74.39
2023-02-07T02:29:55.984Z,73.94
2023-02-07T02:32:37.520Z,73.88
2023-02-07T02:35:17.413Z,74.12
2023-02-07T02:38:02.783Z,73.98
2023-02-07T02:40:47.423Z,74.19
2023-02-07T02:43:47.292Z,73.88
2023-02-07T03:10:03.526Z,74.44
2023-02-07T03:12:50.466Z,74.82
2023-02-07T03:15:18.464Z,74.84
2023-02-07T03:17:51.441Z,74.39
2023-02-07T03:20:24.887Z,74.64
2023-02-07T03:22:52.228Z,74.74
2023-02-07T03:25:20.515Z,74.48
2023-02-07T03:27:47.973Z,74.14
2023-02-07T03:30:17.024Z,74.63
2023-02-07T03:32:46.797Z,74.12
2023-02-07T03:35:36.821Z,74.44
2023-02-07T03:38:04.061Z,74.54
2023-02-07T03:40:33.563Z,74.08
2023-02-07T03:43:04.730Z,74.14
2023-02-07T03:45:31.249Z,74.32
2023-02-07T03:47:57.699Z,74.76
2023-02-07T03:50:24.313Z,74.31
2023-02-07T03:52:50.805Z,74.50
2023-02-07T03:55:17.281Z,74.88
2023-02-07T03:57:43.762Z,74.47
2023-02-07T04:00:10.844Z,75.00
2023-02-07T04:02:40.491Z,74.55
2023-02-07T04:05:07.520Z,74.33
2023-02-07T04:07:34.181Z,74.71
2023-02-07T04:10:00.704Z,74.09
2023-02-07T04:12:32.714Z,74.66
2023-02-07T04:15:00.293Z,74.33
2023-02-07T04:17:27.816Z,73.94
2023-02-07T04:19:55.070Z,73.95
2023-02-07T04:22:21.550Z,74.35
2023-02-07T04:24:48.308Z,73.90
2023-02-07T04:27:14.899Z,73.94
2023-02-07T04:29:41.534Z,74.00
2023-02-07T04:32:08.261Z,73.76
2023-02-07T04:34:34.750Z,74.26
2023-02-07T04:37:01.351Z,74.06
2023-02-07T04:39:27.946Z,73.34
2023-02-07T04:41:54.406Z,73.60
2023-02-07T04:44:20.936Z,73.69
2023-02-07T04:46:47.451Z,74.03
2023-02-07T04:49:13.912Z,73.50
2023-02-07T04:51:40.401Z,73.67
2023-02-07T04:54:06.893Z,73.52
2023-02-07T04:56:36.051Z,73.55
2023-02-07T04:59:02.749Z,73.80
2023-02-07T05:01:29.292Z,73.54
2023-02-07T05:03:55.859Z,73.80
2023-02-07T05:06:22.378Z,73.88
2023-02-07T05:08:48.846Z,73.70
2023-02-07T05:11:15.477Z,73.35
2023-02-07T05:13:41.986Z,73.63
2023-02-07T05:16:08.513Z,73.67
2023-02-07T05:18:35.040Z,73.79
2023-02-07T05:21:01.572Z,73.91
2023-02-07T05:23:28.505Z,73.78
2023-02-07T05:25:54.985Z,73.31
2023-02-07T05:28:21.553Z,73.84
2023-02-07T05:30:48.231Z,74.10
2023-02-07T05:33:14.791Z,73.99
2023-02-07T05:35:43.773Z,74.03
2023-02-07T05:38:15.603Z,73.43
2023-02-07T05:40:42.748Z,73.80
2023-02-07T05:43:09.775Z,74.02
2023-02-07T05:45:37.380Z,73.94
2023-02-07T05:48:04.501Z,73.78
2023-02-07T05:50:31.039Z,73.86
2023-02-07T05:53:05.812Z,73.99
2023-02-07T05:55:32.373Z,73.69
2023-02-07T05:57:58.941Z,73.80
2023-02-07T06:00:26.104Z,74.54
2023-02-07T06:02:52.701Z,74.56
2023-02-07T06:05:23.727Z,74.64
2023-02-07T06:07:51.466Z,74.30
2023-02-07T06:10:17.946Z,74.42
2023-02-07T06:12:44.835Z,74.59
2023-02-07T06:15:11.383Z,74.23
2023-02-07T06:17:37.886Z,74.30
2023-02-07T06:20:05.071Z,73.93
2023-02-07T06:22:31.591Z,73.96
2023-02-07T06:24:58.086Z,73.80
2023-02-07T06:27:24.673Z,74.28
2023-02-07T06:29:51.164Z,74.04
2023-02-07T06:32:17.656Z,73.93
2023-02-07T06:34:44.164Z,74.15
2023-02-07T06:37:10.665Z,74.54
2023-02-07T06:39:37.149Z,74.09
2023-02-07T06:42:04.319Z,74.21
2023-02-07T06:44:30.833Z,73.86
2023-02-07T06:46:57.294Z,73.54
2023-02-07T06:49:23.815Z,73.80
2023-02-07T06:51:50.317Z,73.41
2023-02-07T06:54:16.953Z,73.90
2023-02-07T06:56:43.409Z,73.56
2023-02-07T06:59:09.941Z,73.95
2023-02-07T07:01:36.539Z,73.76
2023-02-07T07:04:03.047Z,74.28
2023-02-07T07:06:29.556Z,73.81
2023-02-07T07:08:56.085Z,73.57
2023-02-07T07:11:22.864Z,74.60
2023-02-07T07:13:49.387Z,74.48
2023-02-07T07:16:15.886Z,73.90
2023-02-07T07:18:42.444Z,74.41
2023-02-07T07:21:08.982Z,74.00
2023-02-07T07:23:36.005Z,73.96
2023-02-07T07:26:02.547Z,74.69
2023-02-07T07:28:29.086Z,73.88
2023-02-07T07:30:55.650Z,74.07
2023-02-07T07:33:22.323Z,73.88
2023-02-07T07:35:48.844Z,73.82
2023-02-07T07:38:15.342Z,73.87
2023-02-07T07:40:41.848Z,73.32
2023-02-07T07:43:08.386Z,74.00
2023-02-07T07:45:46.525Z,73.66
2023-02-07T07:48:13.041Z,73.62
2023-02-07T07:50:39.869Z,73.41
2023-02-07T07:53:06.630Z,73.52
2023-02-07T07:55:33.124Z,73.15
2023-02-07T07:57:59.622Z,72.86
2023-02-07T08:00:26.137Z,72.22
2023-02-07T08:02:52.593Z,72.03
2023-02-07T08:05:19.092Z,71.57
2023-02-07T08:07:45.579Z,71.47
2023-02-07T08:10:12.113Z,70.89
2023-02-07T08:12:38.667Z,70.66
2023-02-07T08:15:07.732Z,70.32
2023-02-07T08:17:34.286Z,69.15
2023-02-07T08:20:00.812Z,68.57
2023-02-07T08:22:27.360Z,68.48
2023-02-07T08:24:53.945Z,68.03
2023-02-07T08:27:20.444Z,67.96
2023-02-07T08:29:46.942Z,68.42
2023-02-07T08:32:14.087Z,68.29
2023-02-07T08:34:40.648Z,67.99
2023-02-07T08:37:09.294Z,67.28
2023-02-07T08:39:38.632Z,67.36
2023-02-07T08:42:05.510Z,67.08
2023-02-07T08:44:32.281Z,66.53
2023-02-07T08:46:58.783Z,65.10
2023-02-07T08:49:25.266Z,65.19
2023-02-07T08:51:52.798Z,64.33
2023-02-07T08:54:19.846Z,63.96
2023-02-07T08:56:47.034Z,63.13
2023-02-07T08:59:13.925Z,62.70
2023-02-07T09:01:40.410Z,62.93
2023-02-07T09:04:06.891Z,61.91
2023-02-07T09:06:33.575Z,62.77
2023-02-07T09:09:00.131Z,61.58
2023-02-07T09:11:26.886Z,61.22
2023-02-07T09:13:53.485Z,59.63
2023-02-07T09:16:20.050Z,59.13
2023-02-07T09:18:46.614Z,59.17
2023-02-07T09:21:13.820Z,59.64
2023-02-07T09:23:40.323Z,59.88
2023-02-07T09:26:08.147Z,59.79
2023-02-07T09:28:35.900Z,60.22
2023-02-07T09:31:08.716Z,58.93
2023-02-07T09:33:35.251Z,60.05
2023-02-07T09:36:01.755Z,59.79
2023-02-07T09:38:29.273Z,59.68
2023-02-07T09:40:56.351Z,59.27
2023-02-07T09:43:36.548Z,59.06
2023-02-07T09:46:11.957Z,58.83
2023-02-07T09:48:54.503Z,58.89
2023-02-07T09:51:23.670Z,57.98
2023-02-07T09:53:54.488Z,57.56
2023-02-07T09:56:22.395Z,57.54
2023-02-07T09:59:23.095Z,56.62
2023-02-07T10:01:53.842Z,56.10
2023-02-07T10:04:26.567Z,56.40
2023-02-07T10:06:55.012Z,56.42
2023-02-07T10:09:31.914Z,55.42
2023-02-07T10:12:05.883Z,56.05
2023-02-07T10:14:37.182Z,55.98
2023-02-07T10:17:31.526Z,54.80
2023-02-07T10:20:12.618Z,54.63
2023-02-07T10:22:49.020Z,55.07
2023-02-07T10:25:23.548Z,53.54
2023-02-07T10:28:14.394Z,53.09
2023-02-07T10:30:49.414Z,52.54
2023-02-07T10:33:22.559Z,53.37
2023-02-07T10:35:49.166Z,53.07
2023-02-07T10:38:33.670Z,52.70
2023-02-07T10:41:03.910Z,52.65
2023-02-07T10:43:32.697Z,51.98
2023-02-07T10:46:06.351Z,51.94
2023-02-07T10:48:33.971Z,51.32
2023-02-07T10:51:03.914Z,50.65
2023-02-07T10:53:55.774Z,52.09
2023-02-07T10:56:24.699Z,52.53
2023-02-07T10:58:51.279Z,53.05
2023-02-07T11:01:25.978Z,51.80
2023-02-07T11:03:53.052Z,51.15
2023-02-07T11:06:39.829Z,50.42
2023-02-07T11:09:21.251Z,50.40
2023-02-07T11:11:50.668Z,51.07
2023-02-07T11:14:26.214Z,51.17
2023-02-07T11:16:57.555Z,51.75
2023-02-07T11:19:26.916Z,52.21
2023-02-07T11:22:05.821Z,51.85
2023-02-07T11:24:35.811Z,51.59
2023-02-07T11:27:28.643Z,50.60
2023-02-07T11:29:57.250Z,51.41
2023-02-07T11:32:26.859Z,51.72
2023-02-07T11:34:58.775Z,50.44
2023-02-07T11:37:32.328Z,50.38
2023-02-07T11:40:21.290Z,50.32
2023-02-07T11:42:48.922Z,50.32
2023-02-07T11:45:18.172Z,49.41
2023-02-07T11:47:48.503Z,49.04
2023-02-07T11:50:25.202Z,50.34
2023-02-07T11:52:58.380Z,50.39
2023-02-07T11:55:33.987Z,49.54
2023-02-07T11:58:08.268Z,49.87
2023-02-07T12:00:36.545Z,48.60
2023-02-07T12:03:21.464Z,48.09
2023-02-07T12:05:51.313Z,49.00
2023-02-07T12:08:24.258Z,48.48
2023-02-07T12:10:56.155Z,47.77
2023-02-07T12:13:35.887Z,46.95
2023-02-07T12:16:02.921Z,46.06
2023-02-07T12:18:43.145Z,44.77
2023-02-07T12:21:27.480Z,45.97
2023-02-07T12:24:06.445Z,43.84
2023-02-07T12:26:38.346Z,44.65
2023-02-07T12:29:34.603Z,44.44
2023-02-07T12:32:16.391Z,44.78
2023-02-07T12:34:52.162Z,43.47
2023-02-07T12:37:30.550Z,43.38
2023-02-07T12:40:10.237Z,42.31
2023-02-07T12:42:43.226Z,42.14
2023-02-07T12:45:18.867Z,41.41
2023-02-07T12:48:02.034Z,41.80
2023-02-07T12:50:40.619Z,39.75
2023-02-07T12:53:32.119Z,40.63
2023-02-07T12:56:06.037Z,39.25
2023-02-07T12:58:50.087Z,38.92
2023-02-07T13:01:37.166Z,39.42
2023-02-07T13:04:24.225Z,39.58
2023-02-07T13:07:30.304Z,38.57
2023-02-07T13:10:05.708Z,37.68
2023-02-07T13:12:44.984Z,35.45
2023-02-07T13:15:39.943Z,36.79
2023-02-07T13:18:15.675Z,36.21
2023-02-07T13:21:01.778Z,37.12
2023-02-07T13:23:31.820Z,36.06
2023-02-07T13:26:06.163Z,35.65
2023-02-07T13:28:43.526Z,35.53
2023-02-07T13:31:13.233Z,34.20
2023-02-07T13:33:40.726Z,34.34
2023-02-07T13:36:23.232Z,34.45
2023-02-07T13:38:51.687Z,34.26
2023-02-07T13:41:34.023Z,33.72
2023-02-07T13:44:10.038Z,34.00
2023-02-07T13:47:13.423Z,33.63
2023-02-07T13:49:42.893Z,32.79
2023-02-07T13:52:18.194Z,33.04
2023-02-07T13:54:49.666Z,33.88
2023-02-07T13:57:57.520Z,34.66
2023-02-07T14:00:31.948Z,35.99
2023-02-07T14:03:02.217Z,37.47
2023-02-07T14:05:43.670Z,37.78
2023-02-07T14:08:16.511Z,38.51
2023-02-07T14:10:47.078Z,39.43
2023-02-07T14:13:26.131Z,39.88
2023-02-07T14:16:01.966Z,41.14
2023-02-07T14:18:34.721Z,42.47
2023-02-07T14:21:06.842Z,42.46
2023-02-07T14:23:52.220Z,42.97
2023-02-07T14:26:40.281Z,42.77
2023-02-07T14:29:24.822Z,43.20
2023-02-07T14:31:55.237Z,43.82
2023-02-07T14:34:24.814Z,43.93
2023-02-07T14:36:54.907Z,44.77
2023-02-07T14:39:32.306Z,45.01
2023-02-07T14:42:10.553Z,45.42
2023-02-07T14:44:39.215Z,46.10
2023-02-07T14:47:07.400Z,46.58
2023-02-07T14:49:42.170Z,46.58
2023-02-07T14:52:11.784Z,46.73
2023-02-07T14:54:52.946Z,46.71
2023-02-07T14:57:51.593Z,46.81
2023-02-07T15:00:18.208Z,47.26
2023-02-07T15:02:47.872Z,47.48
2023-02-07T15:05:26.892Z,48.22
2023-02-07T15:08:02.617Z,48.37
2023-02-07T15:10:35.030Z,48.55
2023-02-07T15:13:02.777Z,48.91
2023-02-07T15:15:35.912Z,49.08
2023-02-07T15:18:02.723Z,49.33
2023-02-07T15:20:31.478Z,49.36
2023-02-07T15:22:59.291Z,49.42
2023-02-07T15:25:27.861Z,49.82
2023-02-07T15:28:10.982Z,50.03
2023-02-07T15:30:56.816Z,50.13
2023-02-07T15:33:24.701Z,50.53
2023-02-07T15:35:51.383Z,50.79
2023-02-07T15:38:26.334Z,50.85
2023-02-07T15:40:54.037Z,51.16
2023-02-07T15:43:33.489Z,51.18
2023-02-07T15:46:07.760Z,51.80
2023-02-07T15:48:46.497Z,51.89
2023-02-07T15:51:14.034Z,51.90
2023-02-07T15:53:40.972Z,52.19
2023-02-07T15:56:07.928Z,52.24
2023-02-07T15:58:36.687Z,52.79
2023-02-07T16:01:05.786Z,53.47
2023-02-07T16:03:41.018Z,53.62
2023-02-07T16:06:13.919Z,53.73
2023-02-07T16:08:42.115Z,53.70
2023-02-07T16:11:13.391Z,53.89
2023-02-07T16:13:49.603Z,54.43
2023-02-07T16:16:27.851Z,54.59
2023-02-07T16:19:17.451Z,54.82
2023-02-07T16:21:45.053Z,55.43
2023-02-07T16:24:14.406Z,55.46
2023-02-07T16:26:41.203Z,56.07
2023-02-07T16:29:07.931Z,55.92
2023-02-07T16:31:35.130Z,55.78
2023-02-07T16:34:01.672Z,56.08
2023-02-07T16:36:28.355Z,56.39
2023-02-07T16:38:54.888Z,56.82
2023-02-07T16:41:28.309Z,57.05
2023-02-07T16:43:55.001Z,57.69
2023-02-07T16:46:21.475Z,57.89
2023-02-07T16:48:47.972Z,58.02
2023-02-07T16:51:16.800Z,58.37
2023-02-07T16:53:43.453Z,58.59
2023-02-07T16:56:23.860Z,58.41
2023-02-07T16:58:50.434Z,58.31
2023-02-07T17:01:19.009Z,58.63
2023-02-07T17:03:45.695Z,59.18
2023-02-07T17:06:16.649Z,59.25
2023-02-07T17:08:43.241Z,59.16
2023-02-07T17:11:24.722Z,59.92
2023-02-07T17:13:55.915Z,60.19
2023-02-07T17:16:23.282Z,60.12
2023-02-07T17:18:49.884Z,60.48
2023-02-07T17:21:16.798Z,60.63
2023-02-07T17:23:44.371Z,61.11
2023-02-07T17:26:18.466Z,60.97
2023-02-07T17:28:45.156Z,61.19
2023-02-07T17:31:12.250Z,61.50
2023-02-07T17:33:39.335Z,61.93
2023-02-07T17:36:06.468Z,61.89
2023-02-07T17:38:32.987Z,62.27
2023-02-07T17:40:59.596Z,62.34
2023-02-07T17:43:26.175Z,62.35
2023-02-07T17:45:52.793Z,62.72
2023-02-07T17:48:19.312Z,62.39
2023-02-07T17:50:45.920Z,62.51
2023-02-07T17:53:13.981Z,62.39
2023-02-07T17:55:40.632Z,62.74
2023-02-07T17:58:07.109Z,62.74
2023-02-07T18:00:40.162Z,62.94
2023-02-07T18:03:07.720Z,63.51
2023-02-07T18:05:34.480Z,63.41
2023-02-07T18:08:01.046Z,62.98
2023-02-07T18:10:30.358Z,62.97
2023-02-07T18:12:57.552Z,63.14
2023-02-07T18:15:24.669Z,63.25
2023-02-07T18:17:52.014Z,63.16
2023-02-07T18:20:24.272Z,63.46
2023-02-07T18:22:52.461Z,63.39
2023-02-07T18:25:19.125Z,63.02
2023-02-07T18:27:46.991Z,63.55
2023-02-07T18:30:14.509Z,63.35
2023-02-07T18:32:41.279Z,63.41
2023-02-07T18:35:08.349Z,63.37
2023-02-07T18:37:34.995Z,63.81
2023-02-07T18:40:01.632Z,63.75
2023-02-07T18:42:29.881Z,63.92
2023-02-07T18:44:56.422Z,64.15
2023-02-07T18:47:23.165Z,64.54
2023-02-07T18:49:49.697Z,64.40
2023-02-07T18:52:16.733Z,64.23
2023-02-07T18:54:44.543Z,64.72
2023-02-07T18:57:11.945Z,64.58
2023-02-07T18:59:38.906Z,64.84
2023-02-07T19:02:06.136Z,64.88
2023-02-07T19:04:32.643Z,65.09
2023-02-07T19:06:59.797Z,65.13
2023-02-07T19:09:27.101Z,65.47
2023-02-07T19:11:55.219Z,65.63
2023-02-07T19:14:25.290Z,65.60
2023-02-07T19:16:54.040Z,65.82
2023-02-07T19:19:20.971Z,66.23
2023-02-07T19:21:47.623Z,65.84
2023-02-07T19:24:15.840Z,65.78
2023-02-07T19:26:42.850Z,66.02
2023-02-07T19:29:11.639Z,65.89
2023-02-07T19:31:40.271Z,65.86
2023-02-07T19:34:07.246Z,65.70
2023-02-07T19:36:33.836Z,65.85
2023-02-07T19:39:00.783Z,66.10
2023-02-07T19:41:28.419Z,66.12
2023-02-07T19:43:55.336Z,66.09
2023-02-07T19:46:22.129Z,66.18
2023-02-07T19:48:49.223Z,66.45
2023-02-07T19:51:18.972Z,66.31
2023-02-07T19:53:47.108Z,66.83
2023-02-07T19:56:14.168Z,66.55
2023-02-07T19:58:43.241Z,66.63
2023-02-07T20:01:10.378Z,66.77
2023-02-07T20:03:38.395Z,66.78
2023-02-07T20:06:09.827Z,66.79
2023-02-07T20:08:38.936Z,67.00
2023-02-07T20:11:11.208Z,66.92
2023-02-07T20:13:41.080Z,67.39
2023-02-07T20:16:10.227Z,67.02
2023-02-07T20:18:36.912Z,67.13
2023-02-07T20:21:11.505Z,67.00
2023-02-07T20:23:40.057Z,67.08
2023-02-07T20:26:08.517Z,67.49
2023-02-07T20:28:35.330Z,67.33
2023-02-07T20:31:02.413Z,67.64
2023-02-07T20:33:30.067Z,67.39
2023-02-07T20:35:56.629Z,67.45
2023-02-07T20:38:23.220Z,67.61
2023-02-07T20:40:49.703Z,67.61
2023-02-07T20:43:16.241Z,67.59
2023-02-07T20:45:42.824Z,67.77
2023-02-07T20:48:13.254Z,67.59
2023-02-07T20:50:39.991Z,67.12
2023-02-07T20:53:06.577Z,67.36
2023-02-07T20:55:33.191Z,67.25
2023-02-07T20:57:59.742Z,68.27
2023-02-07T21:00:26.265Z,67.91
2023-02-07T21:02:52.766Z,67.83
2023-02-07T21:05:19.311Z,67.82
2023-02-07T21:07:45.791Z,68.35
2023-02-07T21:10:12.445Z,67.93
2023-02-07T21:12:38.933Z,68.46
2023-02-07T21:15:05.528Z,68.25
2023-02-07T21:17:32.039Z,68.38
2023-02-07T21:19:58.556Z,68.48
2023-02-07T21:22:25.044Z,68.79
2023-02-07T21:24:51.621Z,68.71
2023-02-07T21:27:18.202Z,68.61
2023-02-07T21:29:44.749Z,68.67
2023-02-07T21:32:11.360Z,68.70
2023-02-07T21:34:37.905Z,68.61
2023-02-07T21:37:04.418Z,68.51
2023-02-07T21:39:30.960Z,68.53
2023-02-07T21:41:58.764Z,69.11
2023-02-07T21:44:25.320Z,68.64
2023-02-07T21:46:52.315Z,68.88
2023-02-07T21:49:20.699Z,69.05
2023-02-07T21:51:48.956Z,68.99
2023-02-07T21:54:15.957Z,68.98
2023-02-07T21:56:43.538Z,69.15
2023-02-07T21:59:15.535Z,68.81
2023-02-07T22:01:43.066Z,69.03
2023-02-07T22:04:10.510Z,68.99
2023-02-07T22:06:38.523Z,69.31
2023-02-07T22:09:05.408Z,69.37
2023-02-07T22:11:33.991Z,69.63
2023-02-07T22:14:01.194Z,69.86
2023-02-07T22:16:29.159Z,69.33
2023-02-07T22:18:57.291Z,69.73
2023-02-07T22:21:27.022Z,69.54
2023-02-07T22:23:53.779Z,69.31
2023-02-07T22:26:20.586Z,70.14
2023-02-07T22:28:47.813Z,70.19
2023-02-07T22:31:17.518Z,70.18
2023-02-07T22:33:44.294Z,69.79
2023-02-07T22:36:20.062Z,69.79
2023-02-07T22:38:47.845Z,69.71
2023-02-07T22:41:14.648Z,70.11
2023-02-07T22:43:41.191Z,70.19
2023-02-07T22:46:11.114Z,70.23
2023-02-07T22:48:37.669Z,69.65
2023-02-07T22:51:17.963Z,69.83
2023-02-07T22:53:44.660Z,69.87
2023-02-07T22:56:11.456Z,69.85
2023-02-07T22:58:38.042Z,70.51
2023-02-07T23:01:05.438Z,69.96
2023-02-07T23:03:32.307Z,70.22
2023-02-07T23:06:03.264Z,70.55
2023-02-07T23:08:29.897Z,70.08
2023-02-07T23:10:56.396Z,69.92
2023-02-07T23:13:23.118Z,70.41
2023-02-07T23:15:49.732Z,70.55
2023-02-07T23:18:16.341Z,69.91
2023-02-07T23:20:44.639Z,69.76
2023-02-07T23:23:12.347Z,69.66
2023-02-07T23:25:45.924Z,70.17
2023-02-07T23:28:13.553Z,69.90
2023-02-07T23:30:41.426Z,69.89
2023-02-07T23:33:09.402Z,70.44
2023-02-07T23:35:36.061Z,69.89
2023-02-07T23:38:03.071Z,69.93
2023-02-07T23:40:29.687Z,69.95
2023-02-07T23:42:56.194Z,70.21
2023-02-07T23:45:22.974Z,70.62
2023-02-07T23:47:49.504Z,70.45
2023-02-07T23:50:16.017Z,70.89
2023-02-07T23:52:42.520Z,70.67
2023-02-07T23:55:09.113Z,71.22
2023-02-07T23:57:35.592Z,71.07
